Time;durP1;ratioP1;P1;durP2;ratioP2;P2;SDS_P1;SDS_P2;PMS_P1;PMS_P2;Temp;Humidity;BMP_temperature;BMP_pressure;BME280_temperature;BME280_humidity;BME280_pressure;Samples;Min_cycle;Max_cycle;Signal;HPM_P1;HPM_P2
2023/06/14 00:02:17;;;;;;;5.53;2.08;;;;;;;17.54;53.26;101813.00;7390546;19;20025;-51
2023/06/14 00:04:45;;;;;;;4.55;1.90;;;;;;;17.51;53.34;101815.97;7391825;19;20015;-50
2023/06/14 00:07:13;;;;;;;5.38;2.25;;;;;;;17.56;53.48;101817.38;7391451;19;20011;-49
2023/06/14 00:09:41;;;;;;;6.32;2.20;;;;;;;17.41;54.09;101822.22;7390037;19;20034;-50
2023/06/14 00:12:08;;;;;;;6.70;2.33;;;;;;;17.38;54.44;101825.16;7390094;19;20022;-52
2023/06/14 00:14:35;;;;;;;4.82;2.20;;;;;;;17.38;54.67;101827.84;7390349;19;20339;-50
2023/06/14 00:17:03;;;;;;;4.30;1.90;;;;;;;17.41;54.68;101827.59;7391260;19;20490;-49
2023/06/14 00:19:34;;;;;;;8.93;2.50;;;;;;;17.40;54.42;101826.75;7389519;19;20391;-50
2023/06/14 00:22:01;;;;;;;3.38;1.75;;;;;;;17.33;54.75;101825.56;7390619;19;20022;-48
2023/06/14 00:24:29;;;;;;;6.65;2.03;;;;;;;17.29;54.83;101824.97;7390942;19;20023;-49
2023/06/14 00:26:56;;;;;;;6.65;2.10;;;;;;;17.23;55.24;101825.47;7391393;19;20011;-51
2023/06/14 00:29:23;;;;;;;5.35;2.38;;;;;;;17.17;55.46;101831.38;7391036;19;20025;-54
2023/06/14 00:31:50;;;;;;;7.80;2.65;;;;;;;17.08;55.79;101834.81;7390480;19;20025;-52
2023/06/14 00:34:18;;;;;;;7.35;2.20;;;;;;;17.10;56.00;101832.00;7389680;19;20365;-51
2023/06/14 00:36:45;;;;;;;6.00;1.95;;;;;;;17.07;55.82;101830.44;7389341;19;20483;-53
2023/06/14 00:39:12;;;;;;;6.55;2.28;;;;;;;16.93;56.55;101828.06;7390290;19;20082;-58
2023/06/14 00:41:39;;;;;;;7.07;1.98;;;;;;;16.95;56.49;101835.00;7390709;19;20015;-54
2023/06/14 00:44:07;;;;;;;4.10;2.25;;;;;;;17.02;56.20;101838.00;7395035;19;20039;-56
2023/06/14 00:46:34;;;;;;;6.00;2.10;;;;;;;17.01;56.31;101836.28;7398058;19;20024;-53
2023/06/14 00:49:02;;;;;;;6.97;2.33;;;;;;;16.99;56.56;101841.78;7397691;19;20014;-50
2023/06/14 00:51:29;;;;;;;5.65;2.05;;;;;;;16.98;56.69;101833.88;7397937;19;20022;-50
2023/06/14 00:53:56;;;;;;;7.18;2.30;;;;;;;16.90;57.17;101841.69;7392620;19;20029;-51
2023/06/14 00:56:24;;;;;;;6.13;2.33;;;;;;;16.86;57.35;101842.91;7397614;19;20031;-53
2023/06/14 00:58:51;;;;;;;5.78;2.67;;;;;;;16.75;57.70;101839.31;7397556;19;20018;-54
2023/06/14 01:01:19;;;;;;;4.82;2.08;;;;;;;16.79;57.64;101845.28;7397823;19;20014;-49
2023/06/14 01:03:46;;;;;;;7.10;2.30;;;;;;;16.75;57.70;101842.00;7394332;19;20034;-53
2023/06/14 01:06:29;;;;;;;6.65;2.20;;;;;;;16.79;57.73;101845.28;7397889;19;20064;-54
2023/06/14 01:09:08;;;;;;;5.55;2.20;;;;;;;16.64;58.42;101849.19;7397247;19;20018;-55
2023/06/14 01:11:50;;;;;;;5.95;2.45;;;;;;;16.65;58.51;101849.03;7397532;19;20023;-55
2023/06/14 01:14:18;;;;;;;5.72;2.40;;;;;;;16.50;58.72;101847.63;7396333;19;20023;-55
2023/06/14 01:16:47;;;;;;;7.20;2.78;;;;;;;16.53;58.72;101847.38;7396879;19;20014;-53
2023/06/14 01:19:15;;;;;;;5.32;2.50;;;;;;;16.56;58.81;101850.66;7397272;19;20046;-55
2023/06/14 01:21:43;;;;;;;5.75;2.53;;;;;;;16.53;58.88;101855.41;7396100;19;20029;-54
2023/06/14 01:24:11;;;;;;;5.80;2.45;;;;;;;16.50;59.21;101852.97;7397305;19;20019;-55
2023/06/14 01:26:45;;;;;;;6.82;2.80;;;;;;;16.49;59.03;101848.59;7396710;19;20017;-56
2023/06/14 01:29:17;;;;;;;7.60;2.50;;;;;;;16.48;59.04;101852.22;7395301;19;20025;-55
2023/06/14 01:31:46;;;;;;;6.50;2.38;;;;;;;16.44;59.25;101858.78;7395969;19;20200;-56
2023/06/14 01:34:13;;;;;;;5.00;2.67;;;;;;;16.41;59.51;101857.25;7395750;19;20519;-54
2023/06/14 01:36:43;;;;;;;6.53;2.50;;;;;;;16.41;59.50;101851.91;7396889;19;20027;-54
2023/06/14 01:39:15;;;;;;;6.75;2.40;;;;;;;16.46;59.30;101857.72;7394808;19;20014;-54
2023/06/14 01:41:44;;;;;;;4.93;2.60;;;;;;;16.44;59.64;101861.47;7395917;19;20045;-55
2023/06/14 01:44:13;;;;;;;6.35;2.70;;;;;;;16.33;60.06;101856.97;7396335;19;20030;-52
2023/06/14 01:46:41;;;;;;;7.93;2.72;;;;;;;16.20;60.51;101859.81;7395921;19;20018;-52
2023/06/14 01:49:09;;;;;;;7.70;2.60;;;;;;;16.19;60.63;101868.81;7395680;19;20014;-53
2023/06/14 01:51:36;;;;;;;5.43;2.40;;;;;;;16.20;60.39;101858.97;7396091;19;20069;-54
2023/06/14 01:54:04;;;;;;;6.40;2.50;;;;;;;16.16;60.89;101869.03;7392367;19;20022;-54
2023/06/14 01:56:32;;;;;;;8.07;2.72;;;;;;;16.04;61.32;101862.84;7396182;19;20019;-55
2023/06/14 01:58:59;;;;;;;9.68;3.10;;;;;;;16.09;61.05;101871.34;7395392;19;20042;-53
2023/06/14 02:01:26;;;;;;;5.95;2.78;;;;;;;16.10;60.96;101869.50;7394261;19;20518;-55
2023/06/14 02:03:54;;;;;;;7.72;2.75;;;;;;;16.08;61.14;101868.81;7390909;19;20119;-54
2023/06/14 02:06:21;;;;;;;6.07;2.83;;;;;;;16.05;61.31;101869.03;7395665;19;20032;-54
2023/06/14 02:08:48;;;;;;;7.38;3.10;;;;;;;16.07;61.29;101867.94;7395910;19;20098;-53
2023/06/14 02:11:15;;;;;;;6.15;2.60;;;;;;;16.09;61.51;101871.34;7395111;19;20010;-52
2023/06/14 02:13:42;;;;;;;7.43;2.92;;;;;;;16.06;61.50;101865.38;7390648;19;20411;-57
2023/06/14 02:16:10;;;;;;;10.63;3.33;;;;;;;15.97;61.76;101866.97;7395447;19;20361;-57
2023/06/14 02:18:37;;;;;;;10.13;3.17;;;;;;;15.98;62.00;101868.66;7395173;19;20021;-52
2023/06/14 02:21:04;;;;;;;8.60;3.25;;;;;;;15.97;61.94;101874.13;7394958;19;20021;-50
2023/06/14 02:23:32;;;;;;;5.82;3.00;;;;;;;15.94;62.23;101875.22;7392310;19;20035;-50
2023/06/14 02:26:02;;;;;;;7.13;2.97;;;;;;;15.94;62.04;101875.22;7394924;19;20018;-52
2023/06/14 02:28:30;;;;;;;6.72;2.75;;;;;;;15.89;62.26;101872.06;7394905;19;20348;-58
2023/06/14 02:30:57;;;;;;;6.20;3.00;;;;;;;15.88;62.46;101880.22;7394583;19;20019;-58
2023/06/14 02:33:24;;;;;;;7.15;3.15;;;;;;;15.88;62.41;101875.72;7392567;19;20084;-58
2023/06/14 02:35:52;;;;;;;7.18;2.95;;;;;;;15.81;62.51;101867.31;7392376;19;20102;-59
2023/06/14 02:38:20;;;;;;;8.23;3.40;;;;;;;15.83;62.59;101878.75;7395501;19;20018;-59
2023/06/14 02:40:47;;;;;;;6.68;2.88;;;;;;;15.85;62.71;101881.28;7393861;19;20022;-59
2023/06/14 02:43:17;;;;;;;7.65;2.90;;;;;;;15.79;62.75;101874.59;7391665;19;20487;-59
2023/06/14 02:45:44;;;;;;;6.38;2.70;;;;;;;15.75;62.98;101875.81;7393507;19;20041;-59
2023/06/14 02:48:11;;;;;;;6.85;3.30;;;;;;;15.74;63.03;101886.63;7395183;19;20021;-59
2023/06/14 02:50:39;;;;;;;12.45;3.60;;;;;;;15.77;62.88;101887.22;7394263;19;20025;-59
2023/06/14 02:53:06;;;;;;;8.00;3.10;;;;;;;15.74;63.00;101876.78;7391579;19;20010;-59
2023/06/14 02:55:33;;;;;;;6.55;3.10;;;;;;;15.72;63.15;101884.06;7390395;19;20060;-59
2023/06/14 02:58:00;;;;;;;6.45;2.90;;;;;;;15.68;63.30;101887.06;7393874;19;20042;-59
2023/06/14 03:00:30;;;;;;;9.18;3.10;;;;;;;15.70;63.13;101893.16;7394041;19;20077;-59
2023/06/14 03:02:57;;;;;;;7.90;3.40;;;;;;;15.63;63.48;101894.56;7391818;19;20015;-59
2023/06/14 03:05:24;;;;;;;8.75;3.17;;;;;;;15.59;63.59;101900.13;7392416;19;20370;-59
2023/06/14 03:07:53;;;;;;;7.30;3.40;;;;;;;15.59;63.74;101904.63;7394047;19;20064;-59
2023/06/14 03:10:22;;;;;;;8.60;3.03;;;;;;;15.58;63.82;101903.78;7392860;19;20022;-59
2023/06/14 03:12:49;;;;;;;7.07;3.30;;;;;;;15.52;63.90;101898.91;7391715;19;20113;-60
2023/06/14 03:15:17;;;;;;;8.45;3.50;;;;;;;15.51;63.98;101907.03;7391855;19;20397;-57
2023/06/14 03:17:45;;;;;;;7.43;3.00;;;;;;;15.58;63.83;101909.13;7393694;19;20023;-54
2023/06/14 03:20:13;;;;;;;8.40;3.00;;;;;;;15.53;64.13;101907.75;7393328;19;20014;-53
2023/06/14 03:22:40;;;;;;;8.98;3.45;;;;;;;15.47;64.02;101910.91;7391033;19;20025;-54
2023/06/14 03:25:09;;;;;;;8.90;3.47;;;;;;;15.43;64.37;101920.13;7393018;19;20022;-54
2023/06/14 03:27:36;;;;;;;8.40;3.47;;;;;;;15.45;64.25;101921.69;7392702;19;20018;-50
2023/06/14 03:30:04;;;;;;;10.02;3.60;;;;;;;15.48;64.18;101917.94;7393297;19;20095;-50
2023/06/14 03:32:33;;;;;;;6.22;3.20;;;;;;;15.47;64.53;101924.25;7391146;19;20361;-51
2023/06/14 03:35:00;;;;;;;10.00;3.75;;;;;;;15.46;64.29;101925.25;7392001;19;20038;-53
2023/06/14 03:37:28;;;;;;;5.97;3.15;;;;;;;15.52;64.18;101914.94;7392099;19;20014;-52
2023/06/14 03:39:55;;;;;;;8.13;3.40;;;;;;;15.46;64.40;101926.09;7392042;19;20035;-54
2023/06/14 03:42:22;;;;;;;6.57;3.50;;;;;;;15.42;64.57;101929.09;7389372;19;20376;-53
2023/06/14 03:44:49;;;;;;;7.75;3.55;;;;;;;15.41;64.62;101924.72;7392674;19;20067;-54
2023/06/14 03:47:17;;;;;;;7.90;3.45;;;;;;;15.45;64.77;101927.03;7391896;19;20162;-54
2023/06/14 03:49:44;;;;;;;7.05;3.30;;;;;;;15.49;64.65;101927.66;7392436;19;20389;-57
2023/06/14 03:52:11;;;;;;;8.95;3.55;;;;;;;15.53;64.37;101927.31;7389045;19;20474;-54
2023/06/14 03:54:38;;;;;;;8.93;4.00;;;;;;;15.59;64.23;101932.19;7391767;19;20030;-55
2023/06/14 03:57:08;;;;;;;10.45;3.90;;;;;;;15.60;64.11;101933.88;7391506;19;20472;-55
2023/06/14 03:59:36;;;;;;;7.53;3.80;;;;;;;15.49;64.50;101931.19;7391951;19;20038;-55
2023/06/14 04:02:04;;;;;;;8.15;3.63;;;;;;;15.42;64.84;101934.44;7390300;19;20518;-52
2023/06/14 04:04:31;;;;;;;8.85;3.70;;;;;;;15.48;64.68;101928.63;7391902;19;20475;-51
2023/06/14 04:07:00;;;;;;;8.75;3.55;;;;;;;15.60;64.36;101933.03;7391460;19;20020;-51
2023/06/14 04:09:27;;;;;;;6.90;3.30;;;;;;;15.63;64.29;101931.97;7391618;19;20021;-50
2023/06/14 04:11:55;;;;;;;6.93;3.47;;;;;;;15.58;64.35;101938.50;7390322;19;20479;-50
2023/06/14 04:14:23;;;;;;;8.00;3.63;;;;;;;15.59;64.53;101947.34;7391040;19;20018;-52
2023/06/14 04:16:50;;;;;;;7.38;3.38;;;;;;;15.68;64.05;101946.72;7388392;19;20010;-55
2023/06/14 04:19:17;;;;;;;8.30;3.45;;;;;;;15.73;64.04;101949.03;7391350;19;20010;-54
2023/06/14 04:21:44;;;;;;;5.70;3.22;;;;;;;15.79;63.82;101951.22;7389876;19;20513;-54
2023/06/14 04:24:13;;;;;;;8.02;3.70;;;;;;;15.77;63.97;101959.34;7391002;19;20015;-55
2023/06/14 04:26:44;;;;;;;10.27;3.63;;;;;;;15.78;63.84;101958.38;7390739;19;20007;-52
2023/06/14 04:29:16;;;;;;;11.38;3.80;;;;;;;15.80;63.87;101960.94;7390683;19;20556;-55
2023/06/14 04:31:44;;;;;;;7.93;3.40;;;;;;;15.89;63.54;101970.06;7388019;19;20014;-55
2023/06/14 04:34:18;;;;;;;6.35;3.35;;;;;;;15.89;63.54;101970.91;7391042;19;20014;-55
2023/06/14 04:36:53;;;;;;;7.40;3.70;;;;;;;15.95;63.23;101969.56;7388898;19;20027;-54
2023/06/14 04:39:21;;;;;;;7.55;4.03;;;;;;;15.93;63.29;101966.19;7390914;19;20015;-55
2023/06/14 04:41:52;;;;;;;8.13;3.45;;;;;;;15.97;63.21;101967.66;7389308;19;20019;-57
2023/06/14 04:44:20;;;;;;;6.63;3.42;;;;;;;15.99;63.01;101971.06;7390813;19;20505;-57
2023/06/14 04:46:47;;;;;;;6.38;3.40;;;;;;;15.98;63.11;101972.88;7390067;19;20026;-56
2023/06/14 04:49:15;;;;;;;9.65;3.60;;;;;;;16.08;62.92;101973.88;7390766;19;20490;-56
2023/06/14 04:51:44;;;;;;;8.65;3.53;;;;;;;16.03;63.17;101975.22;7390100;19;20082;-56
2023/06/14 04:54:15;;;;;;;5.97;2.97;;;;;;;16.08;63.21;101973.03;7391329;19;20414;-57
2023/06/14 04:56:42;;;;;;;7.35;3.60;;;;;;;16.13;62.79;101968.16;7388650;19;20166;-57
2023/06/14 04:59:11;;;;;;;7.53;3.30;;;;;;;16.22;62.49;101975.47;7389726;19;20363;-54
2023/06/14 05:01:39;;;;;;;6.78;3.65;;;;;;;16.23;62.74;101974.50;7389703;19;20025;-56
2023/06/14 05:04:06;;;;;;;10.75;4.03;;;;;;;16.26;62.84;101978.75;7388225;19;20046;-57
2023/06/14 05:06:33;;;;;;;7.78;3.45;;;;;;;16.30;62.72;101972.22;7390550;19;20018;-56
2023/06/14 05:09:00;;;;;;;8.70;3.55;;;;;;;16.39;62.56;101975.97;7389409;19;20458;-57
2023/06/14 05:11:28;;;;;;;9.77;3.38;;;;;;;16.42;62.33;101979.25;7387905;19;20489;-57
2023/06/14 05:13:55;;;;;;;8.40;3.38;;;;;;;16.49;62.07;101977.81;7387596;19;20016;-56
2023/06/14 05:16:25;;;;;;;6.88;3.70;;;;;;;16.53;62.09;101973.91;7388251;19;20026;-49
2023/06/14 05:18:52;;;;;;;10.75;3.90;;;;;;;16.53;62.07;101978.41;7390049;19;20478;-51
2023/06/14 05:21:20;;;;;;;7.63;3.42;;;;;;;16.54;62.44;101978.28;7389342;19;20014;-49
2023/06/14 05:23:47;;;;;;;8.75;4.00;;;;;;;16.64;62.20;101986.44;7387076;19;20506;-52
2023/06/14 05:26:14;;;;;;;8.10;3.85;;;;;;;16.61;62.33;101975.97;7389332;19;20399;-49
2023/06/14 05:28:41;;;;;;;7.75;3.50;;;;;;;16.61;62.34;101973.31;7392947;19;20121;-53
2023/06/14 05:31:09;;;;;;;11.75;4.20;;;;;;;16.67;62.34;101975.47;7396871;19;20015;-53
2023/06/14 05:33:36;;;;;;;7.80;3.40;;;;;;;16.72;62.33;101983.16;7392164;19;20118;-54
2023/06/14 05:36:04;;;;;;;8.43;3.65;;;;;;;16.81;62.18;101982.44;7395246;19;20090;-54
2023/06/14 05:38:33;;;;;;;8.25;3.55;;;;;;;16.92;61.87;101990.44;7395879;19;20025;-54
2023/06/14 05:41:01;;;;;;;7.32;3.40;;;;;;;16.91;62.16;101993.25;7396044;19;20022;-57
2023/06/14 05:43:28;;;;;;;9.32;3.47;;;;;;;16.92;62.56;101990.44;7392991;19;20031;-53
2023/06/14 05:45:55;;;;;;;7.88;3.22;;;;;;;16.93;62.65;101996.66;7396002;19;20058;-53
2023/06/14 05:48:22;;;;;;;10.00;3.63;;;;;;;17.00;62.59;101996.03;7394815;19;20459;-50
2023/06/14 05:50:50;;;;;;;9.40;3.70;;;;;;;17.17;62.03;101997.34;7396186;19;20029;-57
2023/06/14 05:53:17;;;;;;;6.78;3.10;;;;;;;17.27;61.74;102000.94;7391610;19;20505;-58
2023/06/14 05:55:44;;;;;;;8.85;3.67;;;;;;;17.34;61.48;102000.47;7394499;19;20046;-57
2023/06/14 05:58:13;;;;;;;9.07;3.70;;;;;;;17.39;61.35;102004.44;7395365;19;20042;-58
2023/06/14 06:00:40;;;;;;;8.70;3.60;;;;;;;17.48;61.09;102003.69;7395434;19;20023;-58
2023/06/14 06:03:11;;;;;;;10.15;3.60;;;;;;;17.50;61.10;102007.09;7393037;19;20070;-56
2023/06/14 06:05:38;;;;;;;7.50;3.15;;;;;;;17.61;60.53;102006.19;7394257;19;20029;-59
2023/06/14 06:08:06;;;;;;;9.73;3.00;;;;;;;17.70;59.28;102008.09;7395782;19;20267;-59
2023/06/14 06:10:33;;;;;;;9.30;2.80;;;;;;;17.77;58.49;102011.16;7395539;19;20018;-60
2023/06/14 06:13:00;;;;;;;8.25;2.90;;;;;;;17.81;58.16;102007.22;7393444;19;20042;-60
2023/06/14 06:15:27;;;;;;;8.90;3.38;;;;;;;17.91;58.00;102010.00;7393678;19;20022;-59
2023/06/14 06:17:55;;;;;;;4.70;2.40;;;;;;;17.97;57.59;102006.78;7395245;19;20518;-52
2023/06/14 06:20:28;;;;;;;5.97;2.80;;;;;;;18.00;57.14;102011.88;7395354;19;20019;-51
2023/06/14 06:22:58;;;;;;;8.40;2.83;;;;;;;18.02;56.29;102016.13;7393407;19;20364;-50
2023/06/14 06:25:26;;;;;;;6.93;2.72;;;;;;;18.04;55.63;102018.69;7394782;19;20027;-51
2023/06/14 06:27:55;;;;;;;8.90;3.17;;;;;;;18.07;55.59;102021.09;7394745;19;20521;-50
2023/06/14 06:30:23;;;;;;;8.95;2.88;;;;;;;18.14;55.28;102016.91;7394714;19;20074;-51
2023/06/14 06:32:50;;;;;;;9.07;2.95;;;;;;;18.19;54.89;102020.03;7392556;19;20014;-51
2023/06/14 06:35:18;;;;;;;7.57;2.83;;;;;;;18.20;54.83;102021.78;7393926;19;20021;-57
2023/06/14 06:37:46;;;;;;;6.13;2.75;;;;;;;18.22;54.40;102016.25;7394830;19;20042;-61
2023/06/14 06:40:13;;;;;;;6.70;2.67;;;;;;;18.26;54.57;102018.53;7391984;19;20355;-60
2023/06/14 06:42:41;;;;;;;6.53;2.78;;;;;;;18.35;54.14;102019.56;7391319;19;20040;-60
2023/06/14 06:45:08;;;;;;;8.38;4.00;;;;;;;18.41;54.03;102021.72;7393872;19;20022;-60
2023/06/14 06:47:35;;;;;;;5.30;2.55;;;;;;;18.47;53.88;102026.59;7394344;19;20014;-60
2023/06/14 06:50:03;;;;;;;5.60;2.35;;;;;;;18.51;53.92;102028.00;7393976;19;20365;-60
2023/06/14 06:52:30;;;;;;;7.32;2.75;;;;;;;18.59;53.95;102037.22;7392234;19;20022;-60
2023/06/14 06:54:57;;;;;;;6.57;2.63;;;;;;;18.64;53.58;102029.63;7391638;19;20027;-61
2023/06/14 06:57:25;;;;;;;6.55;2.80;;;;;;;18.65;53.36;102034.84;7391790;19;20094;-60
2023/06/14 06:59:52;;;;;;;5.80;2.58;;;;;;;18.68;53.21;102034.56;7393124;19;20035;-60
2023/06/14 07:02:20;;;;;;;7.25;2.20;;;;;;;18.73;53.13;102029.69;7392703;19;20038;-60
2023/06/14 07:04:47;;;;;;;6.50;2.42;;;;;;;18.80;52.55;102031.81;7393040;19;20037;-60
2023/06/14 07:07:14;;;;;;;6.72;2.40;;;;;;;18.84;52.83;102035.94;7393468;19;20043;-59
2023/06/14 07:09:42;;;;;;;4.55;2.20;;;;;;;18.94;52.45;102037.69;7392814;19;20017;-60
2023/06/14 07:12:10;;;;;;;5.00;1.98;;;;;;;19.04;51.59;102036.84;7391759;19;20026;-60
2023/06/14 07:14:38;;;;;;;4.88;2.22;;;;;;;19.08;51.36;102038.28;7391695;19;20015;-60
2023/06/14 07:17:05;;;;;;;5.00;2.20;;;;;;;19.13;50.73;102042.25;7391537;19;20031;-60
2023/06/14 07:19:33;;;;;;;6.75;2.47;;;;;;;19.13;50.20;102044.94;7393045;19;20017;-61
2023/06/14 07:22:00;;;;;;;5.97;1.98;;;;;;;19.13;49.76;102044.94;7391991;19;20517;-61
2023/06/14 07:24:28;;;;;;;3.92;2.10;;;;;;;19.14;50.13;102041.25;7394084;19;20019;-61
2023/06/14 07:26:56;;;;;;;5.00;1.90;;;;;;;19.21;49.71;102037.03;7392375;19;20090;-61
2023/06/14 07:29:23;;;;;;;5.38;2.00;;;;;;;19.27;48.86;102046.41;7393141;19;20314;-62
2023/06/14 07:31:50;;;;;;;5.90;2.38;;;;;;;19.33;48.12;102037.78;7391592;19;20014;-61
2023/06/14 07:34:17;;;;;;;4.38;1.90;;;;;;;19.33;48.05;102031.56;7392804;19;20029;-62
2023/06/14 07:36:46;;;;;;;4.07;1.80;;;;;;;19.35;48.37;102037.66;7390429;19;20025;-61
2023/06/14 07:39:13;;;;;;;13.57;2.20;;;;;;;19.36;48.11;102034.81;7392471;19;20014;-61
2023/06/14 07:41:40;;;;;;;4.82;1.90;;;;;;;19.41;47.68;102026.34;7391677;19;20018;-62
2023/06/14 07:44:08;;;;;;;6.53;2.10;;;;;;;19.44;47.92;102032.28;7392158;19;20014;-61
2023/06/14 07:46:35;;;;;;;8.18;2.05;;;;;;;19.53;47.64;102027.06;7392275;19;20017;-61
2023/06/14 07:49:02;;;;;;;5.07;2.10;;;;;;;19.60;48.03;102034.41;7391609;19;20022;-61
2023/06/14 07:51:30;;;;;;;7.10;2.13;;;;;;;19.64;47.66;102030.47;7391411;19;20018;-62
2023/06/14 07:54:00;;;;;;;5.63;2.10;;;;;;;19.68;47.54;102028.38;7389008;19;20022;-61
2023/06/14 07:56:28;;;;;;;4.47;1.92;;;;;;;19.69;47.68;102030.94;7391645;19;20014;-61
2023/06/14 07:58:55;;;;;;;5.53;2.10;;;;;;;19.72;47.94;102025.25;7390795;19;20025;-61
2023/06/14 08:01:25;;;;;;;6.07;2.05;;;;;;;19.78;47.69;102028.38;7391475;19;20028;-61
2023/06/14 08:03:52;;;;;;;4.90;2.30;;;;;;;19.90;46.73;102028.06;7389000;19;20014;-62
2023/06/14 08:06:19;;;;;;;5.53;2.40;;;;;;;19.89;46.88;102041.69;7391103;19;20025;-61
2023/06/14 08:08:47;;;;;;;7.72;2.30;;;;;;;19.85;46.60;102041.09;7390386;19;20018;-61
2023/06/14 08:11:14;;;;;;;2.85;1.60;;;;;;;19.93;45.93;102043.09;7391646;19;20010;-61
2023/06/14 09:44:17;;;;;;;5.88;2.50;;;;;;;20.67;43.20;102028.91;7424984;19;20355;-54
2023/06/14 09:46:48;;;;;;;6.10;2.53;;;;;;;20.80;43.30;102024.06;7427305;19;20386;-57
2023/06/14 09:49:15;;;;;;;6.97;2.17;;;;;;;20.90;43.11;102032.06;7426558;19;20018;-58
2023/06/14 09:51:45;;;;;;;9.15;2.58;;;;;;;20.99;43.40;102031.19;7426081;19;20486;-55
2023/06/14 09:54:20;;;;;;;6.97;2.25;;;;;;;21.02;43.00;102030.03;7426046;19;20018;-56
2023/06/14 09:56:51;;;;;;;4.22;2.38;;;;;;;21.16;43.66;102029.53;7425058;19;20025;-55
2023/06/14 09:59:29;;;;;;;4.72;2.10;;;;;;;21.29;43.06;102026.47;7424841;19;20015;-55
2023/06/14 10:01:59;;;;;;;8.02;2.40;;;;;;;21.40;43.11;102037.06;7425477;19;20010;-55
2023/06/14 10:04:28;;;;;;;8.07;2.35;;;;;;;21.39;43.00;102021.88;7426030;19;20046;-55
2023/06/14 10:06:56;;;;;;;3.92;2.40;;;;;;;21.48;42.60;102036.28;7426162;19;20500;-56
2023/06/14 10:09:24;;;;;;;5.68;2.35;;;;;;;21.53;42.25;102018.66;7425908;19;20050;-57
2023/06/14 10:11:52;;;;;;;8.30;2.40;;;;;;;21.56;42.29;102020.19;7425051;19;20018;-58
2023/06/14 10:14:19;;;;;;;4.72;2.15;;;;;;;21.60;42.37;102025.16;7424240;19;20018;-55
2023/06/14 10:16:52;;;;;;;5.43;2.15;;;;;;;21.69;42.29;102017.13;7425478;19;20018;-55
2023/06/14 10:19:35;;;;;;;6.57;2.53;;;;;;;21.76;42.29;102019.03;7425615;19;20042;-53
2023/06/14 10:22:09;;;;;;;6.25;2.35;;;;;;;21.72;42.12;102017.66;7424520;19;20026;-55
2023/06/14 10:24:42;;;;;;;5.50;2.58;;;;;;;21.80;41.26;102015.03;7425834;19;20077;-55
2023/06/14 10:27:12;;;;;;;6.22;2.42;;;;;;;21.95;41.31;102006.38;7426443;19;20433;-55
2023/06/14 10:29:55;;;;;;;6.82;2.20;;;;;;;22.08;40.50;102009.50;7426168;19;20014;-55
2023/06/14 10:32:24;;;;;;;7.97;2.85;;;;;;;22.11;41.29;102012.75;7423425;19;20022;-57
2023/06/14 10:34:57;;;;;;;7.53;2.25;;;;;;;22.28;40.43;102002.06;7425325;19;20022;-55
2023/06/14 10:37:25;;;;;;;5.77;3.00;;;;;;;22.35;40.08;102006.69;7423889;19;20412;-56
2023/06/14 10:39:55;;;;;;;6.75;2.22;;;;;;;22.33;39.98;102008.72;7425560;19;20357;-57
2023/06/14 10:42:28;;;;;;;5.53;2.35;;;;;;;22.34;40.15;102005.00;7423782;19;20106;-56
2023/06/14 10:45:00;;;;;;;4.05;2.03;;;;;;;22.29;40.16;102007.34;7425250;19;20108;-56
2023/06/14 10:47:35;;;;;;;6.78;2.33;;;;;;;22.35;40.34;101997.75;7423344;19;20042;-56
2023/06/14 10:50:07;;;;;;;10.00;2.95;;;;;;;22.42;40.11;102001.50;7425016;19;20039;-55
2023/06/14 10:52:38;;;;;;;5.63;2.22;;;;;;;22.51;39.58;102000.56;7422634;19;20025;-57
2023/06/14 10:55:14;;;;;;;4.32;2.22;;;;;;;22.58;39.34;102006.13;7400520;19;20038;-55
2023/06/14 10:57:58;;;;;;;7.28;2.15;;;;;;;22.77;38.39;102003.19;7396414;19;20073;-56
2023/06/14 11:00:28;;;;;;;4.47;2.30;;;;;;;22.77;38.87;102003.19;7396432;19;20041;-57
2023/06/14 11:03:29;;;;;;;6.47;2.38;;;;;;;22.77;37.96;101999.63;7393345;19;20025;-58
2023/06/14 11:05:58;;;;;;;4.72;2.58;;;;;;;22.79;38.32;101997.63;7395669;19;20682;-57
2023/06/14 11:08:38;;;;;;;7.03;2.42;;;;;;;22.84;38.75;101988.00;7395205;19;20010;-58
2023/06/14 11:11:09;;;;;;;8.23;2.67;;;;;;;22.87;38.62;101989.56;7396036;19;20021;-58
2023/06/14 11:13:38;;;;;;;7.55;2.50;;;;;;;22.73;38.04;101982.91;7393000;19;20031;-57
2023/06/14 11:16:17;;;;;;;9.75;2.40;;;;;;;22.74;38.56;101987.31;7395477;19;20081;-56
2023/06/14 11:18:45;;;;;;;8.70;2.50;;;;;;;22.58;38.66;101993.47;7395266;19;20100;-57
2023/06/14 11:21:17;;;;;;;7.80;2.47;;;;;;;22.60;38.21;101986.06;7395029;19;20020;-56
2023/06/14 11:23:51;;;;;;;6.97;2.35;;;;;;;22.65;37.36;101988.28;7392129;19;20486;-55
2023/06/14 11:26:29;;;;;;;7.85;3.05;;;;;;;22.86;37.46;101985.16;7395646;19;20018;-55
2023/06/14 11:29:01;;;;;;;5.20;2.58;;;;;;;23.09;36.61;101971.94;7394747;19;20022;-56
2023/06/14 11:31:28;;;;;;;11.15;4.47;;;;;;;22.99;36.97;101980.16;7394692;19;20090;-56
2023/06/14 11:34:00;;;;;;;5.68;2.85;;;;;;;22.75;37.72;101977.34;7391459;19;20015;-54
2023/06/14 11:36:31;;;;;;;7.68;3.60;;;;;;;22.75;37.57;101972.81;7394328;19;20498;-56
2023/06/14 11:39:08;;;;;;;7.00;2.72;;;;;;;22.74;37.86;101968.41;7394618;19;20089;-56
2023/06/14 11:41:41;;;;;;;4.50;2.55;;;;;;;22.72;37.88;101967.72;7394645;19;20022;-57
2023/06/14 11:44:09;;;;;;;4.93;2.72;;;;;;;22.79;37.77;101968.75;7391925;19;20023;-57
2023/06/14 11:46:36;;;;;;;10.55;2.95;;;;;;;22.95;37.73;101961.75;7394346;19;20019;-56
2023/06/14 11:49:04;;;;;;;7.03;3.50;;;;;;;23.04;37.04;101958.88;7392695;19;20116;-57
2023/06/14 11:51:33;;;;;;;7.55;3.00;;;;;;;23.16;36.90;101950.47;7394011;19;20025;-57
2023/06/14 11:54:04;;;;;;;5.93;2.60;;;;;;;23.32;36.51;101956.75;7391773;19;20022;-57
2023/06/14 11:56:32;;;;;;;6.50;2.88;;;;;;;23.51;36.33;101954.75;7393856;19;20085;-54
2023/06/14 11:59:00;;;;;;;8.80;2.63;;;;;;;23.67;35.65;101952.06;7392273;19;20380;-55
2023/06/14 12:01:30;;;;;;;6.85;2.53;;;;;;;23.80;35.23;101955.09;7393527;19;20023;-56
2023/06/14 12:03:59;;;;;;;6.40;2.63;;;;;;;23.89;35.17;101955.94;7389032;19;20022;-55
2023/06/14 12:06:39;;;;;;;5.57;2.70;;;;;;;23.79;34.89;101953.41;7390710;19;20077;-57
2023/06/14 12:09:12;;;;;;;6.60;2.47;;;;;;;23.62;35.52;101946.28;7394019;19;20042;-56
2023/06/14 12:11:40;;;;;;;7.35;2.78;;;;;;;23.53;35.81;101941.88;7392962;19;20517;-55
2023/06/14 12:14:11;;;;;;;7.10;2.97;;;;;;;23.50;35.74;101947.63;7393796;19;20011;-57
2023/06/14 12:16:40;;;;;;;9.68;4.53;;;;;;;23.53;36.00;101937.31;7393181;19;20022;-56
2023/06/14 12:19:10;;;;;;;6.38;2.80;;;;;;;23.57;36.13;101935.97;7392103;19;20029;-57
2023/06/14 12:21:40;;;;;;;5.90;2.78;;;;;;;23.66;36.07;101938.66;7392790;19;20022;-57
2023/06/14 12:24:11;;;;;;;5.35;2.80;;;;;;;23.49;36.43;101944.06;7391528;19;20015;-57
2023/06/14 12:26:40;;;;;;;7.13;2.72;;;;;;;23.41;36.18;101943.25;7392460;19;20146;-56
2023/06/14 12:29:08;;;;;;;12.10;3.10;;;;;;;23.30;36.75;101953.34;7393466;19;20019;-56
2023/06/14 12:31:35;;;;;;;9.05;2.67;;;;;;;23.23;36.58;101948.78;7392549;19;20018;-57
2023/06/14 12:34:03;;;;;;;6.40;2.60;;;;;;;23.33;36.87;101953.03;7389290;19;20018;-56
2023/06/14 12:36:31;;;;;;;8.57;2.70;;;;;;;23.49;36.45;101948.66;7392996;19;20106;-56
2023/06/14 12:38:59;;;;;;;7.68;2.75;;;;;;;23.73;35.89;101950.53;7392028;19;20085;-56
2023/06/14 12:41:27;;;;;;;6.20;2.70;;;;;;;23.96;35.09;101943.41;7392710;19;20018;-56
2023/06/14 12:43:54;;;;;;;7.55;2.53;;;;;;;24.12;34.66;101938.97;7389785;19;20023;-57
2023/06/14 12:46:21;;;;;;;6.45;2.42;;;;;;;24.20;34.16;101931.69;7392320;19;20037;-56
2023/06/14 12:48:49;;;;;;;5.50;2.65;;;;;;;24.01;35.18;101940.19;7391656;19;20018;-57
2023/06/14 12:51:16;;;;;;;7.30;2.80;;;;;;;23.83;35.08;101948.50;7391440;19;20010;-55
2023/06/14 12:53:43;;;;;;;8.88;2.95;;;;;;;23.59;35.94;101938.50;7388094;19;20159;-57
2023/06/14 12:56:11;;;;;;;6.50;2.58;;;;;;;23.60;35.87;101937.50;7391609;19;20042;-57
2023/06/14 12:58:38;;;;;;;6.63;2.67;;;;;;;23.72;35.63;101929.91;7391956;19;20022;-56
2023/06/14 13:01:05;;;;;;;5.95;2.60;;;;;;;23.84;35.56;101937.50;7391774;19;20042;-57
2023/06/14 13:03:35;;;;;;;5.13;2.65;;;;;;;24.15;34.31;101930.50;7388989;19;20740;-56